Hovedside
METAR-TAF:

METAR-TAF

Lufthavner :

Kramfors, Sverige

Kramfors lufthavn

breddegrad: 63-03N, lengdegrad: 017-46E, høyde over havet: 10 m

Gjeldene værobservasjon

Denne rapporten ble laget for 22 minutter siden, klokken 04:20 UTC
Vind 13 kt fra Nord-nordøst
Temperatur 1°C
Luftfuktighet 86%
Trykk 1002 hPa
Sikt 10 km eller mer

METAR: ESNK 250420Z AUTO 02013KT 9999 BKN013/// OVC080/// 01/M01 Q1002

Tid: 06:42 (04:42 UTC)

Varsel

Denne rapporten ble laget for 1 time og 37 minutter siden, klokken 03:05 UTC
Varsel gyldig fra 25. klokken 03 UTC til 25. klokken 09 UTC
Vind 8 kt fra Nord-nordvest
Sikt 10 km eller mer
Overskyet i en høyde av 1000 ft
Sannsynlighet 40%
fra 25. klokken 03 UTC til 25. klokken 07 UTC
Brutte skyer i en høyde av 400 ft
Sannsynlighet 40%
fra 25. klokken 07 UTC til 25. klokken 09 UTC
Brutte skyer i en høyde av 1500 ft

TAF: ESNK 250305Z 2503/2509 34008KT 9999 OVC010 PROB40 2503/2507 BKN004 PROB40 2507/2509 BKN015

Værobservasjoner og værvarsel for over 4000 flyplasser (METAR- og TAF-rapporter).

Tilgjengelige stasjoner er representert av de røde og gule prikkene på kartet.

Hold musepekeren over prikken for å se navnet på stasjonen.

Klikk så for å se værobservasjoner og -varsler.

For å forandre kartet kan du klikke på den grønne knappen med svart kryss for å zoome inn, på den grønne knappen med strek for å zoome ut, eller på de grønne pilene for å se tilstøtende kart.


METAR-TAF: